Time;durP1;ratioP1;P1;durP2;ratioP2;P2;SDS_P1;SDS_P2;PMS_P1;PMS_P2;Temp;Humidity;BMP_temperature;BMP_pressure;BME280_temperature;BME280_humidity;BME280_pressure;Samples;Min_cycle;Max_cycle;Signal;HPM_P1;HPM_P2
2022/06/20 00:01:05;;;;;;;3.60;0.40;;;15.40;99.90;;;;;;5042039;28;20049;-45
2022/06/20 00:03:39;;;;;;;4.68;0.35;;;15.40;99.90;;;;;;5044915;28;20045;-48
2022/06/20 00:06:05;;;;;;;5.43;0.40;;;15.40;99.90;;;;;;5055307;28;20042;-50
2022/06/20 00:08:31;;;;;;;10.27;0.60;;;15.40;99.90;;;;;;5044356;28;20037;-49
2022/06/20 00:10:57;;;;;;;3.35;0.43;;;15.40;99.90;;;;;;5047265;28;20048;-47
2022/06/20 00:13:31;;;;;;;6.93;0.60;;;15.40;99.90;;;;;;5040424;28;20158;-49
2022/06/20 00:15:57;;;;;;;3.42;0.45;;;15.30;99.90;;;;;;5043358;28;20041;-47
2022/06/20 00:18:23;;;;;;;6.03;0.57;;;15.30;99.90;;;;;;5040854;28;20053;-47
2022/06/20 00:20:49;;;;;;;4.03;0.35;;;15.30;99.90;;;;;;5040843;28;20064;-47
2022/06/20 00:23:15;;;;;;;4.40;0.57;;;15.40;99.90;;;;;;5042105;28;20171;-47
2022/06/20 00:25:41;;;;;;;2.45;0.38;;;15.30;99.90;;;;;;5041902;28;20446;-47
2022/06/20 00:28:09;;;;;;;5.07;0.40;;;15.30;99.90;;;;;;5043037;28;20396;-50
2022/06/20 00:30:36;;;;;;;4.68;0.45;;;15.30;99.90;;;;;;5043608;28;20071;-47
2022/06/20 00:33:03;;;;;;;3.42;0.63;;;15.30;99.90;;;;;;5041161;28;20033;-47
2022/06/20 00:35:29;;;;;;;4.78;0.40;;;15.30;99.90;;;;;;5042826;28;20385;-47
2022/06/20 00:37:58;;;;;;;2.58;0.35;;;15.30;99.90;;;;;;5043151;28;20403;-47
2022/06/20 00:40:32;;;;;;;2.88;0.40;;;15.30;99.90;;;;;;5039236;28;20044;-48
2022/06/20 00:42:58;;;;;;;4.30;0.60;;;15.30;99.90;;;;;;5044068;28;20061;-48
2022/06/20 00:45:27;;;;;;;4.05;0.35;;;15.30;99.90;;;;;;5040155;28;20049;-49
2022/06/20 00:48:00;;;;;;;5.07;0.50;;;15.30;99.90;;;;;;5051066;28;20049;-45
2022/06/20 00:50:29;;;;;;;4.03;0.50;;;15.20;99.90;;;;;;5043027;28;20115;-47
2022/06/20 00:53:16;;;;;;;4.05;0.30;;;15.20;99.90;;;;;;5056370;28;20047;-48
2022/06/20 00:55:57;;;;;;;4.20;0.40;;;15.20;99.90;;;;;;5038766;28;20040;-46
2022/06/20 00:58:35;;;;;;;3.15;0.40;;;15.20;99.90;;;;;;5025277;28;20092;-47
2022/06/20 01:01:02;;;;;;;3.88;0.30;;;15.20;99.90;;;;;;5037977;28;20071;-47
2022/06/20 01:03:34;;;;;;;4.45;0.40;;;15.20;99.90;;;;;;5040332;28;20049;-47
2022/06/20 01:06:05;;;;;;;2.47;0.30;;;15.20;99.90;;;;;;5037162;28;20042;-46
2022/06/20 01:08:45;;;;;;;2.50;0.30;;;15.10;99.90;;;;;;5037460;28;20045;-48
2022/06/20 01:11:17;;;;;;;3.05;0.40;;;15.10;99.90;;;;;;5048036;28;20523;-47
2022/06/20 01:13:44;;;;;;;3.70;0.38;;;15.10;99.90;;;;;;5053642;28;20042;-46
2022/06/20 01:16:26;;;;;;;5.00;0.40;;;15.10;99.90;;;;;;5036855;28;20055;-46
2022/06/20 01:18:54;;;;;;;2.70;0.30;;;15.10;99.90;;;;;;5037835;28;20038;-46
2022/06/20 01:21:41;;;;;;;1.88;0.30;;;15.10;99.90;;;;;;5038902;28;20044;-47
2022/06/20 01:24:29;;;;;;;3.40;0.30;;;15.10;99.90;;;;;;5036816;28;20460;-45
2022/06/20 01:27:20;;;;;;;4.85;0.40;;;15.00;99.90;;;;;;5039374;28;20427;-46
2022/06/20 01:29:47;;;;;;;4.60;0.40;;;15.00;99.90;;;;;;5036010;28;20064;-47
2022/06/20 01:32:13;;;;;;;4.90;0.40;;;15.00;99.90;;;;;;5035746;28;20491;-45
2022/06/20 01:34:39;;;;;;;4.32;0.45;;;14.90;99.90;;;;;;5038893;28;20038;-49
2022/06/20 01:37:23;;;;;;;5.55;0.50;;;14.90;99.90;;;;;;5036532;28;20076;-49
2022/06/20 01:39:50;;;;;;;4.43;0.40;;;14.90;99.90;;;;;;5049814;28;20550;-48
2022/06/20 01:42:18;;;;;;;3.15;0.30;;;14.80;99.90;;;;;;5035885;28;20042;-45
2022/06/20 01:44:52;;;;;;;4.93;0.43;;;14.80;99.90;;;;;;5054830;28;20094;-47
2022/06/20 01:47:18;;;;;;;3.28;0.40;;;14.80;99.90;;;;;;5038656;28;20539;-49
2022/06/20 01:49:46;;;;;;;2.97;0.45;;;14.70;99.90;;;;;;5035746;28;20042;-49
2022/06/20 01:52:27;;;;;;;3.88;0.30;;;14.70;99.90;;;;;;5040704;28;20894;-48
2022/06/20 01:55:00;;;;;;;3.35;0.30;;;14.70;99.90;;;;;;5035665;28;20487;-46
2022/06/20 01:57:28;;;;;;;2.27;0.30;;;14.60;99.90;;;;;;5039720;28;20127;-46
2022/06/20 02:00:01;;;;;;;3.13;0.40;;;14.60;99.90;;;;;;5040232;28;20372;-47
2022/06/20 02:02:30;;;;;;;5.55;0.40;;;14.50;99.90;;;;;;5039832;28;20041;-48
2022/06/20 02:04:57;;;;;;;3.05;0.50;;;14.50;99.90;;;;;;5018348;28;20524;-46
2022/06/20 02:07:23;;;;;;;3.58;0.40;;;14.50;99.90;;;;;;5038419;28;20052;-46
2022/06/20 02:09:50;;;;;;;3.67;0.40;;;14.40;99.90;;;;;;5036153;28;20078;-47
2022/06/20 02:12:18;;;;;;;4.88;0.43;;;14.40;99.90;;;;;;5037284;28;20063;-45
2022/06/20 02:15:05;;;;;;;3.10;0.30;;;14.30;99.90;;;;;;5038266;28;20045;-49
2022/06/20 02:17:39;;;;;;;4.30;0.30;;;14.30;99.90;;;;;;5037181;28;20068;-45
2022/06/20 02:20:13;;;;;;;2.60;0.30;;;14.20;99.90;;;;;;5037829;28;20356;-48
2022/06/20 02:22:40;;;;;;;3.15;0.45;;;14.20;99.90;;;;;;5033925;28;20063;-47
2022/06/20 02:25:10;;;;;;;2.67;0.30;;;14.10;99.90;;;;;;5038107;28;20136;-45
2022/06/20 02:27:48;;;;;;;5.25;0.43;;;14.10;99.90;;;;;;5038837;28;20400;-46
2022/06/20 02:30:15;;;;;;;4.30;0.40;;;14.00;99.90;;;;;;5039269;28;20107;-46
2022/06/20 02:32:44;;;;;;;4.45;0.30;;;13.90;99.90;;;;;;5049158;28;20049;-49
2022/06/20 02:35:17;;;;;;;4.72;0.30;;;13.90;99.90;;;;;;5049438;28;20392;-46
2022/06/20 02:37:44;;;;;;;2.67;0.40;;;13.80;99.90;;;;;;5038541;28;20044;-46
2022/06/20 02:40:14;;;;;;;3.05;0.30;;;13.80;99.90;;;;;;5037650;28;20051;-45
2022/06/20 02:43:09;;;;;;;1.88;0.30;;;13.80;99.90;;;;;;5034337;28;20120;-46
2022/06/20 02:45:39;;;;;;;2.80;0.25;;;13.70;99.90;;;;;;5033922;28;20077;-46
2022/06/20 02:48:07;;;;;;;4.13;0.40;;;13.70;99.90;;;;;;5038989;28;20123;-46
2022/06/20 02:50:39;;;;;;;4.32;0.60;;;13.70;99.90;;;;;;5037128;28;20052;-48
2022/06/20 02:53:33;;;;;;;1.63;0.30;;;13.60;99.90;;;;;;5038823;28;20407;-45
2022/06/20 02:55:59;;;;;;;2.40;0.20;;;13.60;99.90;;;;;;5028891;28;20057;-46
2022/06/20 02:58:29;;;;;;;2.28;0.30;;;13.60;99.90;;;;;;5019187;28;20663;-45
2022/06/20 03:01:02;;;;;;;3.63;0.40;;;13.50;99.90;;;;;;5033972;28;20072;-46
2022/06/20 03:03:36;;;;;;;3.05;0.32;;;13.50;99.90;;;;;;5034447;28;20116;-46
2022/06/20 03:06:04;;;;;;;2.95;0.40;;;13.50;99.90;;;;;;5036938;28;20029;-46
2022/06/20 03:08:32;;;;;;;4.78;0.40;;;13.50;99.90;;;;;;5034553;28;20053;-49
2022/06/20 03:11:03;;;;;;;3.17;0.50;;;13.50;99.90;;;;;;5038533;28;20040;-47
2022/06/20 03:13:30;;;;;;;2.47;0.30;;;13.50;99.90;;;;;;5036320;28;20449;-46
2022/06/20 03:15:56;;;;;;;2.45;0.40;;;13.50;99.90;;;;;;5031035;28;20029;-46
2022/06/20 03:18:23;;;;;;;2.28;0.40;;;13.40;99.90;;;;;;5037354;28;20048;-45
2022/06/20 03:20:49;;;;;;;3.38;0.30;;;13.40;99.90;;;;;;5036463;28;20502;-46
2022/06/20 03:23:31;;;;;;;3.13;0.30;;;13.40;99.90;;;;;;5037598;28;20045;-47
2022/06/20 03:26:01;;;;;;;4.57;0.52;;;13.40;99.90;;;;;;5051159;28;20045;-45
2022/06/20 03:28:30;;;;;;;2.90;0.38;;;13.30;99.90;;;;;;5040818;28;20582;-46
2022/06/20 03:30:57;;;;;;;2.25;0.40;;;13.30;99.90;;;;;;5036173;28;20134;-46
2022/06/20 03:33:23;;;;;;;2.00;0.30;;;13.30;99.90;;;;;;5038732;28;21556;-48
2022/06/20 03:35:59;;;;;;;3.58;0.43;;;13.30;99.90;;;;;;5036609;28;20070;-46
2022/06/20 03:38:25;;;;;;;3.13;0.35;;;13.30;99.90;;;;;;5036926;28;20437;-46
2022/06/20 03:40:51;;;;;;;3.05;0.40;;;13.20;99.90;;;;;;5032688;28;20033;-46
2022/06/20 03:43:20;;;;;;;2.42;0.47;;;13.20;99.90;;;;;;5038160;28;20436;-45
2022/06/20 03:45:58;;;;;;;2.78;0.50;;;13.20;99.90;;;;;;5035254;28;20492;-46
2022/06/20 03:48:48;;;;;;;2.83;0.30;;;13.20;99.90;;;;;;5035432;28;20110;-46
2022/06/20 03:51:20;;;;;;;3.45;0.40;;;13.20;99.90;;;;;;5026345;28;20131;-46
2022/06/20 03:54:08;;;;;;;2.67;0.50;;;13.10;99.90;;;;;;5034712;28;20053;-45
2022/06/20 03:56:52;;;;;;;3.38;0.68;;;13.10;99.90;;;;;;5035527;28;20051;-47
2022/06/20 03:59:32;;;;;;;3.97;0.50;;;13.10;99.90;;;;;;5034467;28;20499;-47
2022/06/20 04:02:00;;;;;;;3.83;0.50;;;13.10;99.90;;;;;;5033223;28;20083;-46
2022/06/20 04:04:44;;;;;;;3.90;0.70;;;13.10;99.90;;;;;;5034746;28;20053;-49
2022/06/20 04:07:30;;;;;;;3.33;0.60;;;13.10;99.90;;;;;;5050623;28;20048;-46
2022/06/20 04:12:58;;;;;;;3.55;0.68;;;13.00;99.90;;;;;;5033286;28;20132;-46
2022/06/20 04:15:32;;;;;;;3.10;0.65;;;13.10;99.90;;;;;;5036112;28;20052;-46
2022/06/20 04:18:29;;;;;;;2.28;0.60;;;13.10;99.90;;;;;;5034391;28;20056;-47
2022/06/20 04:20:58;;;;;;;3.78;0.63;;;13.00;99.90;;;;;;5038594;28;20597;-46
2022/06/20 04:23:30;;;;;;;4.22;0.60;;;13.10;99.90;;;;;;5034915;28;20451;-45
2022/06/20 04:26:14;;;;;;;5.88;1.00;;;13.00;99.90;;;;;;5037610;28;20539;-48
2022/06/20 04:29:03;;;;;;;3.28;0.50;;;13.10;99.90;;;;;;5051765;28;20141;-46
2022/06/20 04:31:45;;;;;;;3.75;0.70;;;13.10;99.90;;;;;;5020465;28;20056;-45
2022/06/20 04:34:31;;;;;;;3.50;0.60;;;13.10;99.90;;;;;;5033432;28;20044;-46
2022/06/20 04:37:28;;;;;;;3.95;0.60;;;13.20;99.90;;;;;;5034802;28;20045;-49
2022/06/20 04:40:20;;;;;;;5.00;0.98;;;13.20;99.90;;;;;;5035704;28;20045;-49
2022/06/20 04:42:51;;;;;;;5.80;0.80;;;13.20;99.90;;;;;;5035028;28;20079;-45
2022/06/20 04:45:50;;;;;;;5.43;0.65;;;13.20;99.90;;;;;;5039555;28;20523;-46
2022/06/20 04:48:19;;;;;;;3.25;0.52;;;13.30;99.90;;;;;;5039485;28;20312;-45
2022/06/20 04:50:49;;;;;;;3.60;0.60;;;13.30;99.90;;;;;;5036206;28;20064;-46
2022/06/20 04:53:19;;;;;;;3.95;0.70;;;13.30;99.90;;;;;;5038201;28;20391;-45
2022/06/20 04:55:54;;;;;;;4.63;0.77;;;13.40;99.90;;;;;;5037111;28;20465;-46
2022/06/20 04:58:28;;;;;;;3.40;0.70;;;13.40;99.90;;;;;;5036866;28;20048;-46
2022/06/20 05:00:54;;;;;;;;;;;13.40;99.90;;;;;;5039807;28;20045;-47
2022/06/20 05:03:27;;;;;;;4.82;0.88;;;13.40;99.90;;;;;;5039331;28;19927;-46
2022/06/20 05:05:56;;;;;;;6.82;1.00;;;13.40;99.90;;;;;;5037916;28;20040;-45
2022/06/20 05:08:45;;;;;;;3.20;0.70;;;13.50;99.90;;;;;;5036816;28;20065;-46
2022/06/20 05:11:28;;;;;;;6.07;1.08;;;13.50;99.90;;;;;;5039434;28;20451;-47
2022/06/20 05:14:05;;;;;;;3.35;0.80;;;13.50;99.90;;;;;;5038920;28;20036;-46
2022/06/20 05:16:36;;;;;;;5.22;1.38;;;13.50;99.90;;;;;;5039585;28;20048;-45
2022/06/20 05:19:12;;;;;;;7.07;1.17;;;13.60;99.90;;;;;;5053678;28;20076;-46
2022/06/20 05:21:41;;;;;;;6.70;0.85;;;13.70;99.90;;;;;;5041687;28;20055;-48
2022/06/20 05:24:30;;;;;;;2.58;0.77;;;14.30;99.90;;;;;;5039027;28;20044;-48
2022/06/20 05:26:58;;;;;;;4.05;0.80;;;15.40;99.90;;;;;;5037064;28;20175;-46
2022/06/20 05:29:29;;;;;;;4.47;0.80;;;16.50;99.90;;;;;;5032808;28;20050;-46
2022/06/20 05:31:59;;;;;;;6.35;0.60;;;17.00;99.90;;;;;;5055180;28;20049;-47
2022/06/20 05:34:45;;;;;;;6.28;1.00;;;17.10;99.90;;;;;;5040660;28;20560;-45
2022/06/20 05:37:30;;;;;;;4.43;0.60;;;17.00;99.90;;;;;;5035438;28;20041;-46
2022/06/20 05:40:08;;;;;;;5.03;0.70;;;17.30;99.90;;;;;;5033991;28;20034;-49
2022/06/20 05:42:35;;;;;;;6.55;1.27;;;17.60;99.90;;;;;;5032317;28;20143;-45
2022/06/20 05:45:02;;;;;;;6.13;1.08;;;17.50;99.90;;;;;;5027230;28;20060;-47
2022/06/20 05:47:32;;;;;;;6.43;0.93;;;17.40;99.90;;;;;;5032390;28;20399;-46
2022/06/20 05:50:18;;;;;;;8.25;1.40;;;17.20;99.90;;;;;;5040313;28;20679;-45
2022/06/20 05:52:45;;;;;;;6.65;0.95;;;17.00;99.90;;;;;;5039586;28;20045;-47
2022/06/20 05:55:21;;;;;;;6.60;1.10;;;16.70;99.90;;;;;;5047856;28;20029;-47
2022/06/20 05:57:48;;;;;;;5.10;1.20;;;16.60;99.90;;;;;;5046358;28;20048;-45
2022/06/20 06:00:16;;;;;;;7.10;1.13;;;16.50;99.90;;;;;;5030946;28;20037;-45
2022/06/20 06:02:56;;;;;;;7.78;1.45;;;16.40;99.90;;;;;;5029471;28;20045;-46
2022/06/20 06:05:39;;;;;;;8.00;1.08;;;16.30;99.90;;;;;;5047691;28;20037;-46
2022/06/20 06:08:11;;;;;;;6.47;1.63;;;16.20;99.90;;;;;;5044993;28;20053;-45
2022/06/20 06:10:45;;;;;;;8.25;1.48;;;16.10;99.90;;;;;;5040695;28;20702;-46
2022/06/20 06:13:17;;;;;;;7.15;1.30;;;16.10;99.90;;;;;;5029665;28;20041;-46
2022/06/20 06:18:50;;;;;;;8.25;1.75;;;16.10;99.90;;;;;;5030887;28;20085;-46
2022/06/20 06:21:16;;;;;;;5.88;1.25;;;16.10;99.90;;;;;;5033422;28;20477;-47
2022/06/20 06:23:43;;;;;;;9.20;1.50;;;16.20;99.90;;;;;;5037277;28;20075;-46
2022/06/20 06:26:14;;;;;;;6.57;1.50;;;16.20;99.90;;;;;;5037515;28;20041;-48
2022/06/20 06:28:41;;;;;;;7.47;1.35;;;16.30;99.90;;;;;;5035872;28;20038;-46
2022/06/20 06:31:20;;;;;;;10.05;1.60;;;16.30;99.90;;;;;;5037699;28;20044;-46
2022/06/20 06:34:01;;;;;;;8.82;1.30;;;16.30;99.90;;;;;;5038663;28;20040;-49
2022/06/20 06:36:42;;;;;;;11.15;1.73;;;16.40;99.90;;;;;;5054693;28;20048;-49
2022/06/20 06:39:27;;;;;;;8.50;1.65;;;16.40;99.90;;;;;;5037990;28;20049;-47
2022/06/20 06:41:57;;;;;;;9.73;1.67;;;16.40;99.90;;;;;;5039997;28;20041;-47
2022/06/20 06:44:25;;;;;;;10.90;2.00;;;16.50;99.90;;;;;;5037505;28;20088;-46
2022/06/20 06:46:53;;;;;;;14.85;1.92;;;16.50;99.90;;;;;;5041188;28;20091;-42
2022/06/20 06:49:27;;;;;;;13.82;2.28;;;16.60;99.90;;;;;;5042897;28;20045;-42
2022/06/20 06:52:18;;;;;;;12.85;1.67;;;16.60;99.90;;;;;;5042968;28;20065;-42
2022/06/20 06:54:58;;;;;;;27.92;2.50;;;16.60;99.90;;;;;;5042841;28;20048;-42
2022/06/20 06:57:29;;;;;;;12.80;1.90;;;16.60;99.90;;;;;;5053263;28;20478;-42
2022/06/20 07:00:27;;;;;;;9.45;1.30;;;16.60;99.90;;;;;;5034595;28;20059;-42
2022/06/20 07:03:00;;;;;;;9.50;1.92;;;16.60;99.90;;;;;;5037479;28;20395;-43
2022/06/20 07:05:39;;;;;;;11.77;1.75;;;16.60;99.90;;;;;;5036459;28;20056;-42
2022/06/20 07:08:17;;;;;;;9.18;1.60;;;16.70;99.90;;;;;;5041628;28;20055;-43
2022/06/20 07:10:55;;;;;;;10.93;1.42;;;16.80;99.90;;;;;;5036787;28;20051;-42
2022/06/20 07:13:35;;;;;;;8.93;1.67;;;16.80;99.90;;;;;;5036407;28;20052;-45
2022/06/20 07:16:05;;;;;;;10.75;2.22;;;16.80;99.90;;;;;;5038788;28;20041;-44
2022/06/20 07:18:33;;;;;;;9.57;1.52;;;16.70;99.90;;;;;;5038280;28;20084;-44
2022/06/20 07:20:59;;;;;;;10.27;1.70;;;16.70;99.90;;;;;;5040205;28;20044;-43
2022/06/20 07:23:25;;;;;;;13.02;2.17;;;16.60;99.90;;;;;;5052156;28;20441;-47
2022/06/20 07:25:51;;;;;;;12.52;2.08;;;16.50;99.90;;;;;;5037012;28;20059;-44
2022/06/20 07:28:38;;;;;;;8.95;2.10;;;16.40;99.90;;;;;;5036169;28;20041;-44
2022/06/20 07:31:39;;;;;;;8.30;1.58;;;16.40;99.90;;;;;;5039494;28;20530;-44
2022/06/20 07:34:46;;;;;;;9.07;1.35;;;16.40;99.90;;;;;;5036749;28;20037;-44
2022/06/20 07:37:24;;;;;;;7.40;1.10;;;16.40;99.90;;;;;;4979490;28;20046;-44
2022/06/20 07:40:15;;;;;;;8.10;0.93;;;16.50;99.90;;;;;;5031772;28;20152;-45
2022/06/20 07:42:48;;;;;;;8.30;1.00;;;16.60;99.90;;;;;;5030924;28;20041;-44
2022/06/20 07:45:34;;;;;;;8.07;1.05;;;16.70;99.90;;;;;;5037608;28;20566;-45
2022/06/20 07:48:24;;;;;;;35.60;3.05;;;16.80;99.90;;;;;;5036679;28;20052;-44
2022/06/20 07:50:55;;;;;;;7.50;1.33;;;16.90;99.90;;;;;;5043272;28;20049;-42
2022/06/20 07:53:31;;;;;;;6.80;1.10;;;16.90;99.90;;;;;;5037708;28;20120;-43
2022/06/20 07:56:01;;;;;;;8.13;1.00;;;17.00;99.90;;;;;;5034552;28;20044;-45
2022/06/20 07:58:31;;;;;;;8.93;1.10;;;17.00;99.90;;;;;;5035189;28;20063;-43
2022/06/20 08:01:00;;;;;;;6.30;1.00;;;17.20;99.90;;;;;;5050818;28;20038;-43
2022/06/20 08:03:38;;;;;;;8.57;0.90;;;17.30;99.90;;;;;;5033998;28;20042;-45
2022/06/20 08:06:18;;;;;;;7.18;1.17;;;17.30;99.90;;;;;;5035922;28;20503;-45
2022/06/20 08:08:55;;;;;;;6.88;1.00;;;17.40;99.90;;;;;;5037853;28;20419;-44
2022/06/20 08:11:51;;;;;;;6.10;1.00;;;17.50;99.90;;;;;;5037639;28;20037;-44
2022/06/20 08:14:37;;;;;;;6.75;0.77;;;17.60;99.90;;;;;;5037773;28;20099;-44
2022/06/20 08:17:08;;;;;;;4.32;0.80;;;17.50;99.90;;;;;;5038732;28;20045;-44
2022/06/20 08:19:36;;;;;;;4.63;0.57;;;17.60;99.90;;;;;;5040222;28;20051;-43
2022/06/20 08:22:26;;;;;;;4.78;0.70;;;17.60;99.90;;;;;;5036797;28;20087;-43
2022/06/20 08:25:01;;;;;;;5.82;0.60;;;17.70;99.90;;;;;;5037924;28;20060;-44
2022/06/20 08:27:43;;;;;;;3.17;0.52;;;17.70;99.90;;;;;;5038060;28;20068;-44
2022/06/20 08:30:41;;;;;;;5.82;0.60;;;17.80;99.90;;;;;;5054245;28;20441;-46
2022/06/20 08:33:16;;;;;;;6.70;0.60;;;17.90;99.90;;;;;;5030910;28;20048;-46
2022/06/20 08:35:51;;;;;;;7.25;1.17;;;18.00;99.90;;;;;;5038993;28;20048;-46
2022/06/20 08:38:42;;;;;;;7.00;0.60;;;18.00;99.90;;;;;;5020793;28;20038;-45
2022/06/20 08:41:50;;;;;;;8.25;0.80;;;18.10;99.90;;;;;;5037667;28;20030;-43
2022/06/20 08:44:28;;;;;;;3.70;0.47;;;18.10;99.90;;;;;;5035636;28;20060;-44
2022/06/20 08:47:08;;;;;;;4.10;0.77;;;18.10;99.90;;;;;;5032235;28;20050;-44
2022/06/20 08:49:52;;;;;;;6.53;0.60;;;18.10;99.90;;;;;;5035632;28;20049;-45
2022/06/20 08:53:00;;;;;;;6.07;0.70;;;18.10;99.90;;;;;;5032831;28;20412;-44
2022/06/20 08:55:50;;;;;;;6.30;0.60;;;18.20;99.90;;;;;;5016186;28;20551;-44
2022/06/20 08:58:38;;;;;;;8.00;0.90;;;18.10;99.90;;;;;;5038956;28;20080;-44
2022/06/20 09:01:16;;;;;;;6.75;0.80;;;18.10;99.90;;;;;;5036670;28;20048;-43
2022/06/20 09:04:07;;;;;;;6.00;0.65;;;18.00;99.90;;;;;;5037034;28;20037;-44
2022/06/20 09:06:41;;;;;;;5.13;0.65;;;18.00;99.90;;;;;;5038765;28;20033;-45
2022/06/20 09:09:31;;;;;;;6.75;0.82;;;18.10;99.90;;;;;;5038149;28;20471;-43
2022/06/20 09:12:14;;;;;;;7.30;0.65;;;18.10;99.90;;;;;;5038126;28;20090;-44
2022/06/20 09:14:58;;;;;;;4.35;0.60;;;18.10;99.90;;;;;;5039386;28;20120;-43
2022/06/20 09:17:38;;;;;;;6.57;0.60;;;18.10;99.90;;;;;;5019260;28;20065;-44
2022/06/20 09:20:16;;;;;;;6.18;0.45;;;18.10;99.90;;;;;;5038737;28;20040;-45
2022/06/20 09:22:42;;;;;;;7.82;0.47;;;18.10;99.90;;;;;;5042692;28;20518;-44
2022/06/20 09:25:35;;;;;;;4.30;0.50;;;18.10;99.90;;;;;;5038921;28;20119;-46
2022/06/20 09:28:10;;;;;;;4.60;0.85;;;18.20;99.90;;;;;;5054296;28;20050;-44
2022/06/20 09:30:48;;;;;;;4.47;0.63;;;18.20;99.90;;;;;;5038760;28;20045;-45
2022/06/20 09:33:46;;;;;;;5.90;0.88;;;18.20;99.90;;;;;;5034977;28;20469;-44
2022/06/20 09:36:41;;;;;;;6.45;0.90;;;18.20;99.90;;;;;;5036941;28;20120;-44
2022/06/20 09:39:31;;;;;;;6.82;0.75;;;18.30;99.90;;;;;;5037760;28;20052;-43
2022/06/20 09:42:33;;;;;;;30.83;2.42;;;18.30;99.90;;;;;;5039272;28;20530;-46
2022/06/20 09:45:31;;;;;;;6.57;0.98;;;18.40;99.90;;;;;;5038452;28;20049;-43
2022/06/20 09:48:21;;;;;;;3.22;0.40;;;18.50;99.90;;;;;;5030040;28;20507;-44
2022/06/20 09:51:08;;;;;;;8.40;0.70;;;18.40;99.90;;;;;;5038293;28;20041;-43
2022/06/20 09:53:53;;;;;;;5.20;0.43;;;18.50;99.90;;;;;;5039212;28;20580;-45
2022/06/20 09:56:48;;;;;;;4.53;0.40;;;18.50;99.90;;;;;;5035383;28;20500;-44
2022/06/20 09:59:32;;;;;;;3.40;0.40;;;18.50;99.90;;;;;;5038185;28;20041;-44
2022/06/20 10:02:37;;;;;;;4.13;0.40;;;18.40;99.90;;;;;;5020905;28;20048;-48
2022/06/20 10:05:18;;;;;;;4.18;0.55;;;18.60;99.90;;;;;;5039843;28;20501;-44
2022/06/20 10:07:58;;;;;;;4.75;0.50;;;18.60;99.90;;;;;;5038842;28;20573;-45
2022/06/20 10:10:35;;;;;;;4.35;0.40;;;18.60;99.90;;;;;;5054239;28;20410;-45
2022/06/20 10:13:33;;;;;;;5.25;0.30;;;18.50;99.90;;;;;;5053357;28;20049;-47
2022/06/20 10:16:22;;;;;;;3.97;0.50;;;18.60;99.90;;;;;;5037250;28;20128;-43
2022/06/20 10:19:14;;;;;;;6.47;0.50;;;18.50;99.90;;;;;;5033040;28;20049;-46
2022/06/20 10:22:02;;;;;;;3.97;0.40;;;18.50;99.90;;;;;;5039112;28;20494;-44
2022/06/20 10:24:44;;;;;;;3.58;0.40;;;18.50;99.90;;;;;;5037172;28;20045;-43
2022/06/20 10:27:32;;;;;;;5.80;0.57;;;18.50;99.90;;;;;;5056419;28;20053;-43
2022/06/20 10:30:04;;;;;;;3.80;0.50;;;18.50;99.90;;;;;;5054212;28;20041;-43
2022/06/20 10:32:54;;;;;;;5.90;0.50;;;18.60;99.90;;;;;;5040084;28;20048;-43
2022/06/20 10:35:41;;;;;;;3.25;0.60;;;18.70;99.90;;;;;;5036500;28;20140;-43
2022/06/20 10:38:22;;;;;;;3.25;0.50;;;18.80;99.90;;;;;;5037481;28;20124;-44
2022/06/20 10:41:08;;;;;;;4.90;0.50;;;18.80;99.90;;;;;;5037233;28;20045;-45
2022/06/20 10:44:02;;;;;;;5.72;0.50;;;18.90;99.90;;;;;;5049952;28;20048;-44
2022/06/20 10:46:40;;;;;;;6.75;0.77;;;18.90;99.90;;;;;;5037032;28;20046;-44
2022/06/20 10:49:33;;;;;;;5.10;0.40;;;19.00;99.90;;;;;;5037044;28;20033;-44
2022/06/20 10:52:02;;;;;;;4.68;0.55;;;19.00;99.90;;;;;;5038720;28;20038;-47
2022/06/20 10:54:45;;;;;;;3.15;0.60;;;19.10;99.90;;;;;;5034626;28;20057;-45
2022/06/20 10:57:37;;;;;;;8.07;1.13;;;19.10;99.90;;;;;;5052546;28;20048;-45
2022/06/20 11:00:11;;;;;;;6.32;0.90;;;19.20;99.90;;;;;;5036529;28;20037;-46
2022/06/20 11:03:12;;;;;;;4.82;0.80;;;19.30;99.90;;;;;;5038930;28;20116;-45
2022/06/20 11:05:56;;;;;;;6.47;1.02;;;19.30;99.90;;;;;;5028305;28;20090;-44
2022/06/20 11:08:40;;;;;;;6.57;0.60;;;19.30;99.90;;;;;;5034971;28;20115;-44
2022/06/20 11:11:11;;;;;;;4.60;0.60;;;19.30;99.90;;;;;;5047891;28;20084;-48
2022/06/20 11:13:49;;;;;;;4.22;0.50;;;19.30;99.90;;;;;;5037950;28;20036;-47
2022/06/20 11:16:28;;;;;;;6.10;0.88;;;19.40;99.90;;;;;;5034926;28;20052;-46
2022/06/20 11:19:06;;;;;;;6.50;1.10;;;19.40;99.90;;;;;;5055593;28;20138;-45
2022/06/20 11:21:55;;;;;;;6.25;0.73;;;19.40;99.90;;;;;;5051665;28;20503;-44
2022/06/20 11:24:45;;;;;;;4.03;0.60;;;19.40;99.90;;;;;;5050530;28;20045;-46
2022/06/20 11:27:12;;;;;;;5.50;0.77;;;19.30;99.90;;;;;;5053203;28;20071;-46
2022/06/20 11:29:46;;;;;;;4.13;0.60;;;19.30;99.90;;;;;;5035521;28;20116;-44
2022/06/20 11:32:22;;;;;;;5.72;0.90;;;19.30;99.90;;;;;;5019725;28;20376;-45
2022/06/20 11:35:06;;;;;;;3.60;0.70;;;19.30;99.90;;;;;;5051904;28;20140;-46
2022/06/20 11:37:38;;;;;;;5.15;0.80;;;19.30;99.90;;;;;;5037106;28;20390;-46
2022/06/20 11:40:25;;;;;;;6.00;0.50;;;19.30;99.90;;;;;;5035241;28;20038;-43
2022/06/20 11:43:19;;;;;;;3.38;0.50;;;19.30;99.90;;;;;;5037722;28;20495;-47
2022/06/20 11:46:00;;;;;;;;;;;19.30;99.90;;;;;;5033529;28;20435;-45
2022/06/20 11:48:34;;;;;;;7.28;0.40;;;19.30;99.90;;;;;;5035205;28;19920;-47
2022/06/20 11:51:37;;;;;;;5.25;0.57;;;19.30;99.90;;;;;;5041337;28;20041;-43
2022/06/20 11:54:29;;;;;;;4.53;0.60;;;19.30;99.90;;;;;;5020568;28;20412;-44
2022/06/20 11:57:13;;;;;;;3.78;0.40;;;19.30;99.90;;;;;;5030905;28;20080;-44
2022/06/20 11:59:47;;;;;;;4.57;0.40;;;19.30;99.90;;;;;;5035802;28;20060;-44
2022/06/20 12:02:15;;;;;;;5.88;0.63;;;19.30;99.90;;;;;;5038352;28;20041;-42
2022/06/20 12:05:02;;;;;;;5.25;0.50;;;19.30;99.90;;;;;;5032397;28;20037;-45
2022/06/20 12:07:35;;;;;;;5.60;0.50;;;19.40;99.90;;;;;;5037938;28;20037;-42
2022/06/20 12:10:04;;;;;;;6.30;0.60;;;19.30;99.90;;;;;;5036253;28;20048;-42
2022/06/20 12:12:53;;;;;;;4.68;0.50;;;19.20;99.90;;;;;;5035201;28;20079;-43
2022/06/20 12:15:45;;;;;;;3.35;0.40;;;19.20;99.90;;;;;;5033805;28;20365;-44
2022/06/20 12:18:38;;;;;;;4.72;0.40;;;19.10;99.90;;;;;;5015388;28;20050;-44
2022/06/20 12:24:03;;;;;;;5.45;0.40;;;18.90;99.90;;;;;;5055828;28;20395;-42
2022/06/20 12:26:39;;;;;;;5.25;0.50;;;18.80;99.90;;;;;;5033755;28;20042;-42
2022/06/20 12:29:14;;;;;;;6.28;0.63;;;18.90;99.90;;;;;;5036994;28;20041;-39
2022/06/20 12:31:44;;;;;;;6.10;0.35;;;18.90;99.90;;;;;;5033554;28;20482;-46
2022/06/20 12:34:21;;;;;;;5.45;0.50;;;19.00;99.90;;;;;;5040806;28;20051;-42
2022/06/20 12:37:17;;;;;;;5.93;0.50;;;19.10;99.90;;;;;;5032581;28;20045;-44
2022/06/20 12:40:18;;;;;;;4.32;0.60;;;19.10;99.90;;;;;;5059479;28;20136;-43
2022/06/20 12:42:55;;;;;;;6.10;0.65;;;19.10;99.90;;;;;;5035888;28;20049;-42
2022/06/20 12:46:12;;;;;;;5.45;0.93;;;19.00;99.90;;;;;;5033477;28;20068;-44
2022/06/20 12:49:22;;;;;;;6.05;0.60;;;19.00;99.90;;;;;;5006309;28;20070;-43
2022/06/20 12:52:00;;;;;;;3.92;0.60;;;19.00;99.90;;;;;;5032752;28;20090;-42
2022/06/20 12:54:55;;;;;;;5.20;0.73;;;19.00;99.90;;;;;;5032487;28;20033;-44
2022/06/20 12:57:38;;;;;;;7.43;0.80;;;18.90;99.90;;;;;;5034612;28;20489;-44
2022/06/20 13:00:18;;;;;;;5.47;0.60;;;18.90;99.90;;;;;;5023853;28;20037;-43
2022/06/20 13:02:53;;;;;;;4.53;0.68;;;19.00;99.90;;;;;;5053865;28;20671;-43
2022/06/20 13:05:30;;;;;;;4.75;0.70;;;18.90;99.90;;;;;;5039162;28;20044;-42
2022/06/20 13:08:36;;;;;;;3.78;0.60;;;19.00;99.90;;;;;;5041842;28;20178;-43
2022/06/20 13:11:22;;;;;;;8.43;0.60;;;19.00;99.90;;;;;;5037996;28;20128;-43
2022/06/20 13:14:19;;;;;;;6.55;0.60;;;19.00;99.90;;;;;;5041430;28;20411;-43
2022/06/20 13:16:47;;;;;;;4.90;0.60;;;19.00;99.90;;;;;;5036522;28;20075;-43
2022/06/20 13:19:32;;;;;;;4.25;0.60;;;19.00;99.90;;;;;;5040356;28;20037;-43
2022/06/20 13:22:16;;;;;;;8.38;0.57;;;19.00;99.90;;;;;;5039305;28;20509;-44
2022/06/20 13:25:13;;;;;;;4.80;0.65;;;19.10;99.90;;;;;;5037586;28;20175;-43
2022/06/20 13:27:57;;;;;;;5.95;0.60;;;19.20;99.90;;;;;;5035292;28;20120;-43
2022/06/20 13:30:48;;;;;;;5.30;0.70;;;19.30;99.90;;;;;;5037975;28;20397;-44
2022/06/20 13:33:28;;;;;;;7.65;0.60;;;19.30;99.90;;;;;;5038166;28;20036;-44
2022/06/20 13:36:12;;;;;;;4.10;0.70;;;19.30;99.90;;;;;;5039263;28;20052;-47
2022/06/20 13:38:47;;;;;;;4.65;0.50;;;19.30;99.90;;;;;;5053412;28;20073;-43
2022/06/20 13:41:43;;;;;;;3.13;0.50;;;19.20;99.90;;;;;;5042642;28;20120;-45
2022/06/20 13:44:37;;;;;;;4.00;0.60;;;19.20;99.90;;;;;;5036957;28;20059;-43
2022/06/20 13:47:31;;;;;;;3.13;0.40;;;19.20;99.90;;;;;;5052285;28;20091;-43
2022/06/20 13:51:05;;;;;;;3.35;0.40;;;19.10;99.90;;;;;;5020282;28;20052;-43
2022/06/20 13:54:05;;;;;;;2.95;0.38;;;19.10;99.90;;;;;;5005270;28;20068;-44
2022/06/20 13:56:35;;;;;;;4.38;0.50;;;19.10;99.90;;;;;;4973923;28;20439;-43